sensor_id;sensor_type;location;lat;lon;timestamp;temperature;humidity
11650;DHT22;5881;48.522;7.682;2023-02-28T00:00:17;0.00;1.00
11650;DHT22;5881;48.522;7.682;2023-02-28T00:02:44;-0.10;1.00
11650;DHT22;5881;48.522;7.682;2023-02-28T00:05:12;-0.10;1.00
11650;DHT22;5881;48.522;7.682;2023-02-28T00:07:38;0.00;1.00
11650;DHT22;5881;48.522;7.682;2023-02-28T00:10:08;0.00;1.00
11650;DHT22;5881;48.522;7.682;2023-02-28T00:12:35;-0.10;1.00
11650;DHT22;5881;48.522;7.682;2023-02-28T00:15:02;-0.10;1.00
11650;DHT22;5881;48.522;7.682;2023-02-28T00:17:27;-0.10;1.00
11650;DHT22;5881;48.522;7.682;2023-02-28T00:19:53;-0.10;1.00
11650;DHT22;5881;48.522;7.682;2023-02-28T00:22:20;-0.20;1.00
11650;DHT22;5881;48.522;7.682;2023-02-28T00:24:46;-0.20;1.00
11650;DHT22;5881;48.522;7.682;2023-02-28T00:27:13;-0.20;1.00
11650;DHT22;5881;48.522;7.682;2023-02-28T00:29:39;-0.30;1.00
11650;DHT22;5881;48.522;7.682;2023-02-28T00:32:07;-0.30;1.00
11650;DHT22;5881;48.522;7.682;2023-02-28T00:34:33;-0.20;1.00
11650;DHT22;5881;48.522;7.682;2023-02-28T00:37:07;-0.20;1.00
11650;DHT22;5881;48.522;7.682;2023-02-28T00:39:35;-0.30;1.00
11650;DHT22;5881;48.522;7.682;2023-02-28T00:42:01;-0.30;1.00
11650;DHT22;5881;48.522;7.682;2023-02-28T00:44:27;-0.30;1.00
11650;DHT22;5881;48.522;7.682;2023-02-28T00:46:53;-0.40;1.00
11650;DHT22;5881;48.522;7.682;2023-02-28T00:49:20;-0.40;1.00
11650;DHT22;5881;48.522;7.682;2023-02-28T00:51:46;-0.40;1.00
11650;DHT22;5881;48.522;7.682;2023-02-28T00:54:11;-0.40;1.00
11650;DHT22;5881;48.522;7.682;2023-02-28T00:56:37;-0.40;1.00
11650;DHT22;5881;48.522;7.682;2023-02-28T00:59:03;-0.40;1.00
11650;DHT22;5881;48.522;7.682;2023-02-28T01:01:28;-0.50;1.00
11650;DHT22;5881;48.522;7.682;2023-02-28T01:03:54;-0.50;1.00
11650;DHT22;5881;48.522;7.682;2023-02-28T01:06:19;-0.40;1.00
11650;DHT22;5881;48.522;7.682;2023-02-28T01:08:45;-0.40;1.00
11650;DHT22;5881;48.522;7.682;2023-02-28T01:11:12;-0.40;1.00
11650;DHT22;5881;48.522;7.682;2023-02-28T01:13:38;-0.40;1.00
11650;DHT22;5881;48.522;7.682;2023-02-28T01:16:04;-0.40;1.00
11650;DHT22;5881;48.522;7.682;2023-02-28T01:18:30;-0.40;1.00
11650;DHT22;5881;48.522;7.682;2023-02-28T01:20:56;-0.40;1.00
11650;DHT22;5881;48.522;7.682;2023-02-28T01:23:23;-0.30;1.00
11650;DHT22;5881;48.522;7.682;2023-02-28T01:25:50;-0.30;1.00
11650;DHT22;5881;48.522;7.682;2023-02-28T01:28:16;-0.40;1.00
11650;DHT22;5881;48.522;7.682;2023-02-28T01:30:41;-0.30;1.00
11650;DHT22;5881;48.522;7.682;2023-02-28T01:33:07;-0.30;1.00
11650;DHT22;5881;48.522;7.682;2023-02-28T01:35:33;-0.30;1.00
11650;DHT22;5881;48.522;7.682;2023-02-28T01:37:59;-0.20;1.00
11650;DHT22;5881;48.522;7.682;2023-02-28T01:40:25;-0.20;1.00
11650;DHT22;5881;48.522;7.682;2023-02-28T01:42:50;-0.20;1.00
11650;DHT22;5881;48.522;7.682;2023-02-28T01:45:27;-0.10;1.00
11650;DHT22;5881;48.522;7.682;2023-02-28T01:48:07;-0.10;1.00
11650;DHT22;5881;48.522;7.682;2023-02-28T01:50:40;-0.10;1.00
11650;DHT22;5881;48.522;7.682;2023-02-28T01:53:09;-0.10;1.00
11650;DHT22;5881;48.522;7.682;2023-02-28T01:55:36;0.00;1.00
11650;DHT22;5881;48.522;7.682;2023-02-28T01:58:04;0.00;1.00
11650;DHT22;5881;48.522;7.682;2023-02-28T02:00:32;0.00;1.00
11650;DHT22;5881;48.522;7.682;2023-02-28T02:03:00;0.00;1.00
11650;DHT22;5881;48.522;7.682;2023-02-28T02:05:30;0.00;1.00
11650;DHT22;5881;48.522;7.682;2023-02-28T02:08:05;0.00;1.00
11650;DHT22;5881;48.522;7.682;2023-02-28T02:10:47;0.00;1.00
11650;DHT22;5881;48.522;7.682;2023-02-28T02:16:18;0.00;1.00
11650;DHT22;5881;48.522;7.682;2023-02-28T02:18:54;0.00;1.00
11650;DHT22;5881;48.522;7.682;2023-02-28T02:21:51;0.00;1.00
11650;DHT22;5881;48.522;7.682;2023-02-28T02:39:17;0.00;1.00
11650;DHT22;5881;48.522;7.682;2023-02-28T02:41:34;-0.10;1.00
11650;DHT22;5881;48.522;7.682;2023-02-28T02:44:15;0.00;1.00
11650;DHT22;5881;48.522;7.682;2023-02-28T02:46:44;0.10;1.00
11650;DHT22;5881;48.522;7.682;2023-02-28T02:49:16;0.10;1.00
11650;DHT22;5881;48.522;7.682;2023-02-28T02:51:45;0.00;1.00
11650;DHT22;5881;48.522;7.682;2023-02-28T02:54:15;0.00;1.00
11650;DHT22;5881;48.522;7.682;2023-02-28T02:56:45;0.00;1.00
11650;DHT22;5881;48.522;7.682;2023-02-28T02:59:13;0.00;1.00
11650;DHT22;5881;48.522;7.682;2023-02-28T03:01:41;0.10;1.00
11650;DHT22;5881;48.522;7.682;2023-02-28T03:04:14;0.10;1.00
11650;DHT22;5881;48.522;7.682;2023-02-28T03:06:41;0.00;1.00
11650;DHT22;5881;48.522;7.682;2023-02-28T03:09:07;0.00;1.00
11650;DHT22;5881;48.522;7.682;2023-02-28T03:11:35;0.00;1.00
11650;DHT22;5881;48.522;7.682;2023-02-28T03:19:45;0.00;1.00
11650;DHT22;5881;48.522;7.682;2023-02-28T03:30:37;0.00;1.00
11650;DHT22;5881;48.522;7.682;2023-02-28T03:33:11;0.00;1.00
11650;DHT22;5881;48.522;7.682;2023-02-28T03:35:44;0.00;1.00
11650;DHT22;5881;48.522;7.682;2023-02-28T03:43:53;0.00;1.00
11650;DHT22;5881;48.522;7.682;2023-02-28T03:46:23;-0.10;1.00
11650;DHT22;5881;48.522;7.682;2023-02-28T03:49:02;-0.10;1.00
11650;DHT22;5881;48.522;7.682;2023-02-28T03:51:29;-0.10;1.00
11650;DHT22;5881;48.522;7.682;2023-02-28T03:54:07;-0.10;1.00
11650;DHT22;5881;48.522;7.682;2023-02-28T03:56:44;-0.20;1.00
11650;DHT22;5881;48.522;7.682;2023-02-28T03:59:37;-0.20;1.00
11650;DHT22;5881;48.522;7.682;2023-02-28T04:02:05;-0.20;1.00
11650;DHT22;5881;48.522;7.682;2023-02-28T04:04:30;-0.20;1.00
11650;DHT22;5881;48.522;7.682;2023-02-28T04:07:05;-0.20;1.00
11650;DHT22;5881;48.522;7.682;2023-02-28T04:09:31;-0.30;1.00
11650;DHT22;5881;48.522;7.682;2023-02-28T04:11:57;-0.30;1.00
11650;DHT22;5881;48.522;7.682;2023-02-28T04:14:22;-0.30;1.00
11650;DHT22;5881;48.522;7.682;2023-02-28T04:16:48;-0.30;1.00
11650;DHT22;5881;48.522;7.682;2023-02-28T04:19:16;-0.30;1.00
11650;DHT22;5881;48.522;7.682;2023-02-28T04:21:47;-0.30;1.00
11650;DHT22;5881;48.522;7.682;2023-02-28T04:24:21;-0.30;1.00
11650;DHT22;5881;48.522;7.682;2023-02-28T04:26:49;-0.40;1.00
11650;DHT22;5881;48.522;7.682;2023-02-28T04:29:20;-0.40;1.00
11650;DHT22;5881;48.522;7.682;2023-02-28T04:31:46;-0.50;1.00
11650;DHT22;5881;48.522;7.682;2023-02-28T04:34:11;-0.50;1.00
11650;DHT22;5881;48.522;7.682;2023-02-28T04:36:37;-0.50;1.00
11650;DHT22;5881;48.522;7.682;2023-02-28T04:39:03;-0.50;1.00
11650;DHT22;5881;48.522;7.682;2023-02-28T04:41:29;-0.30;1.00
11650;DHT22;5881;48.522;7.682;2023-02-28T04:43:55;-0.60;1.00
11650;DHT22;5881;48.522;7.682;2023-02-28T04:46:21;-0.60;1.00
11650;DHT22;5881;48.522;7.682;2023-02-28T04:48:47;-0.60;1.00
11650;DHT22;5881;48.522;7.682;2023-02-28T04:51:15;-0.50;1.00
11650;DHT22;5881;48.522;7.682;2023-02-28T04:53:41;-0.70;1.00
11650;DHT22;5881;48.522;7.682;2023-02-28T04:56:09;-0.70;1.00
11650;DHT22;5881;48.522;7.682;2023-02-28T04:58:35;-0.80;1.00
11650;DHT22;5881;48.522;7.682;2023-02-28T05:01:03;-0.80;1.00
11650;DHT22;5881;48.522;7.682;2023-02-28T05:03:29;-0.90;1.00
11650;DHT22;5881;48.522;7.682;2023-02-28T05:05:55;-0.90;1.00
11650;DHT22;5881;48.522;7.682;2023-02-28T05:08:20;-0.90;1.00
11650;DHT22;5881;48.522;7.682;2023-02-28T05:10:46;-1.00;1.00
11650;DHT22;5881;48.522;7.682;2023-02-28T05:13:12;-1.00;1.00
11650;DHT22;5881;48.522;7.682;2023-02-28T05:15:38;-1.00;1.00
11650;DHT22;5881;48.522;7.682;2023-02-28T05:18:03;-1.10;1.00
11650;DHT22;5881;48.522;7.682;2023-02-28T05:20:29;-1.10;1.00
11650;DHT22;5881;48.522;7.682;2023-02-28T05:22:54;-1.10;1.00
11650;DHT22;5881;48.522;7.682;2023-02-28T05:25:22;-1.10;1.00
11650;DHT22;5881;48.522;7.682;2023-02-28T05:27:48;-1.10;1.00
11650;DHT22;5881;48.522;7.682;2023-02-28T05:30:14;-1.10;1.00
11650;DHT22;5881;48.522;7.682;2023-02-28T05:32:41;-1.10;1.00
11650;DHT22;5881;48.522;7.682;2023-02-28T05:35:11;-1.20;1.00
11650;DHT22;5881;48.522;7.682;2023-02-28T05:37:38;-1.20;1.00
11650;DHT22;5881;48.522;7.682;2023-02-28T05:40:05;-1.20;1.00
11650;DHT22;5881;48.522;7.682;2023-02-28T05:42:38;-1.20;1.00
11650;DHT22;5881;48.522;7.682;2023-02-28T05:45:04;-1.20;1.00
11650;DHT22;5881;48.522;7.682;2023-02-28T05:47:30;-1.20;1.00
11650;DHT22;5881;48.522;7.682;2023-02-28T05:49:56;-1.20;1.00
11650;DHT22;5881;48.522;7.682;2023-02-28T05:52:22;-1.20;1.00
11650;DHT22;5881;48.522;7.682;2023-02-28T05:54:47;-1.20;1.00
11650;DHT22;5881;48.522;7.682;2023-02-28T05:57:13;-1.10;1.00
11650;DHT22;5881;48.522;7.682;2023-02-28T05:59:39;-1.10;1.00
11650;DHT22;5881;48.522;7.682;2023-02-28T06:02:06;-1.10;1.00
11650;DHT22;5881;48.522;7.682;2023-02-28T06:04:31;-1.10;1.00
11650;DHT22;5881;48.522;7.682;2023-02-28T06:06:57;-1.00;1.00
11650;DHT22;5881;48.522;7.682;2023-02-28T06:09:23;-1.00;1.00
11650;DHT22;5881;48.522;7.682;2023-02-28T06:11:49;-1.00;1.00
11650;DHT22;5881;48.522;7.682;2023-02-28T06:14:16;-0.90;1.00
11650;DHT22;5881;48.522;7.682;2023-02-28T06:16:42;-0.90;1.00
11650;DHT22;5881;48.522;7.682;2023-02-28T06:19:09;-0.90;1.00
11650;DHT22;5881;48.522;7.682;2023-02-28T06:21:35;-0.90;1.00
11650;DHT22;5881;48.522;7.682;2023-02-28T06:24:01;-0.80;1.00
11650;DHT22;5881;48.522;7.682;2023-02-28T06:26:27;-0.80;1.00
11650;DHT22;5881;48.522;7.682;2023-02-28T06:28:53;-0.80;1.00
11650;DHT22;5881;48.522;7.682;2023-02-28T06:31:19;-0.80;1.00
11650;DHT22;5881;48.522;7.682;2023-02-28T06:33:45;-0.80;1.00
11650;DHT22;5881;48.522;7.682;2023-02-28T06:36:13;-0.70;1.00
11650;DHT22;5881;48.522;7.682;2023-02-28T06:38:39;-0.70;1.00
11650;DHT22;5881;48.522;7.682;2023-02-28T06:41:05;-0.70;1.00
11650;DHT22;5881;48.522;7.682;2023-02-28T06:43:33;-0.70;1.00
11650;DHT22;5881;48.522;7.682;2023-02-28T06:46:01;-0.70;1.00
11650;DHT22;5881;48.522;7.682;2023-02-28T06:48:27;-0.60;1.00
11650;DHT22;5881;48.522;7.682;2023-02-28T06:51:05;-0.60;1.00
11650;DHT22;5881;48.522;7.682;2023-02-28T06:53:31;-0.60;1.00
11650;DHT22;5881;48.522;7.682;2023-02-28T06:55:57;-0.60;1.00
11650;DHT22;5881;48.522;7.682;2023-02-28T06:58:22;-0.60;1.00
11650;DHT22;5881;48.522;7.682;2023-02-28T07:00:51;-0.50;1.00
11650;DHT22;5881;48.522;7.682;2023-02-28T07:03:18;-0.60;1.00
11650;DHT22;5881;48.522;7.682;2023-02-28T07:05:44;-0.50;1.00
11650;DHT22;5881;48.522;7.682;2023-02-28T07:08:10;-0.50;1.00
11650;DHT22;5881;48.522;7.682;2023-02-28T07:10:40;-0.50;1.00
11650;DHT22;5881;48.522;7.682;2023-02-28T07:13:07;-0.40;1.00
11650;DHT22;5881;48.522;7.682;2023-02-28T07:15:34;-0.50;1.00
11650;DHT22;5881;48.522;7.682;2023-02-28T07:17:59;-0.40;1.00
11650;DHT22;5881;48.522;7.682;2023-02-28T07:20:25;-0.40;1.00
11650;DHT22;5881;48.522;7.682;2023-02-28T07:22:51;-0.40;1.00
11650;DHT22;5881;48.522;7.682;2023-02-28T07:25:28;-0.40;1.00
11650;DHT22;5881;48.522;7.682;2023-02-28T07:27:55;-0.30;1.00
11650;DHT22;5881;48.522;7.682;2023-02-28T07:30:21;-0.40;1.00
11650;DHT22;5881;48.522;7.682;2023-02-28T07:32:47;-0.30;1.00
11650;DHT22;5881;48.522;7.682;2023-02-28T07:35:13;-0.30;1.00
11650;DHT22;5881;48.522;7.682;2023-02-28T07:37:41;-0.20;1.00
11650;DHT22;5881;48.522;7.682;2023-02-28T07:40:09;-0.10;1.00
11650;DHT22;5881;48.522;7.682;2023-02-28T07:42:45;-0.20;1.00
11650;DHT22;5881;48.522;7.682;2023-02-28T07:45:11;-0.10;1.00
11650;DHT22;5881;48.522;7.682;2023-02-28T07:47:38;0.00;1.00
11650;DHT22;5881;48.522;7.682;2023-02-28T07:50:05;-0.10;1.00
11650;DHT22;5881;48.522;7.682;2023-02-28T07:52:31;-0.10;1.00
11650;DHT22;5881;48.522;7.682;2023-02-28T07:54:57;-0.10;1.00
11650;DHT22;5881;48.522;7.682;2023-02-28T07:57:23;0.00;1.00
11650;DHT22;5881;48.522;7.682;2023-02-28T07:59:49;-0.10;1.00
11650;DHT22;5881;48.522;7.682;2023-02-28T08:02:16;0.00;1.00
11650;DHT22;5881;48.522;7.682;2023-02-28T08:04:42;0.10;1.00
11650;DHT22;5881;48.522;7.682;2023-02-28T08:07:08;0.10;1.00
11650;DHT22;5881;48.522;7.682;2023-02-28T08:09:38;0.30;1.00
11650;DHT22;5881;48.522;7.682;2023-02-28T08:12:05;0.30;1.00
11650;DHT22;5881;48.522;7.682;2023-02-28T08:14:30;0.20;1.00
11650;DHT22;5881;48.522;7.682;2023-02-28T08:16:56;0.20;1.00
11650;DHT22;5881;48.522;7.682;2023-02-28T08:19:22;0.30;1.00
11650;DHT22;5881;48.522;7.682;2023-02-28T08:21:47;0.40;1.00
11650;DHT22;5881;48.522;7.682;2023-02-28T08:24:13;0.40;1.00
11650;DHT22;5881;48.522;7.682;2023-02-28T08:26:38;0.40;1.00
11650;DHT22;5881;48.522;7.682;2023-02-28T08:29:04;0.40;1.00
11650;DHT22;5881;48.522;7.682;2023-02-28T08:31:30;0.30;1.00
11650;DHT22;5881;48.522;7.682;2023-02-28T08:33:55;0.40;1.00
11650;DHT22;5881;48.522;7.682;2023-02-28T08:36:24;0.30;1.00
11650;DHT22;5881;48.522;7.682;2023-02-28T08:38:50;0.30;1.00
11650;DHT22;5881;48.522;7.682;2023-02-28T08:41:16;0.50;1.00
11650;DHT22;5881;48.522;7.682;2023-02-28T08:43:41;0.40;1.00
11650;DHT22;5881;48.522;7.682;2023-02-28T08:46:08;0.40;1.00
11650;DHT22;5881;48.522;7.682;2023-02-28T08:48:36;0.50;1.00
11650;DHT22;5881;48.522;7.682;2023-02-28T08:51:08;0.50;1.00
11650;DHT22;5881;48.522;7.682;2023-02-28T08:53:36;0.60;1.00
11650;DHT22;5881;48.522;7.682;2023-02-28T08:56:07;0.80;1.00
11650;DHT22;5881;48.522;7.682;2023-02-28T08:58:34;0.70;1.00
11650;DHT22;5881;48.522;7.682;2023-02-28T09:01:00;0.80;1.00
11650;DHT22;5881;48.522;7.682;2023-02-28T09:03:26;0.70;1.00
11650;DHT22;5881;48.522;7.682;2023-02-28T09:05:56;0.70;1.00
11650;DHT22;5881;48.522;7.682;2023-02-28T09:08:23;0.80;1.00
11650;DHT22;5881;48.522;7.682;2023-02-28T09:10:49;0.70;1.00
11650;DHT22;5881;48.522;7.682;2023-02-28T09:13:15;0.80;1.00
11650;DHT22;5881;48.522;7.682;2023-02-28T09:15:40;0.60;1.00
11650;DHT22;5881;48.522;7.682;2023-02-28T09:18:06;0.60;1.00
11650;DHT22;5881;48.522;7.682;2023-02-28T09:20:32;0.60;1.00
11650;DHT22;5881;48.522;7.682;2023-02-28T09:22:57;0.70;1.00
11650;DHT22;5881;48.522;7.682;2023-02-28T09:25:23;0.70;1.00
11650;DHT22;5881;48.522;7.682;2023-02-28T09:27:48;0.70;1.00
11650;DHT22;5881;48.522;7.682;2023-02-28T09:30:14;0.80;1.00
11650;DHT22;5881;48.522;7.682;2023-02-28T09:32:40;0.70;1.00
11650;DHT22;5881;48.522;7.682;2023-02-28T09:35:06;0.80;1.00
11650;DHT22;5881;48.522;7.682;2023-02-28T09:37:32;0.70;1.00
11650;DHT22;5881;48.522;7.682;2023-02-28T09:39:57;0.80;1.00
11650;DHT22;5881;48.522;7.682;2023-02-28T09:42:31;0.80;1.00
11650;DHT22;5881;48.522;7.682;2023-02-28T09:45:05;0.90;1.00
11650;DHT22;5881;48.522;7.682;2023-02-28T09:47:40;0.90;1.00
11650;DHT22;5881;48.522;7.682;2023-02-28T09:51:15;1.00;1.00
11650;DHT22;5881;48.522;7.682;2023-02-28T09:53:26;1.00;1.00
11650;DHT22;5881;48.522;7.682;2023-02-28T09:56:01;1.20;1.00
11650;DHT22;5881;48.522;7.682;2023-02-28T09:58:49;1.10;1.00
11650;DHT22;5881;48.522;7.682;2023-02-28T10:06:47;1.10;1.00
11650;DHT22;5881;48.522;7.682;2023-02-28T10:09:27;1.30;1.00
11650;DHT22;5881;48.522;7.682;2023-02-28T10:12:02;1.30;1.00
11650;DHT22;5881;48.522;7.682;2023-02-28T10:14:30;1.30;1.00
11650;DHT22;5881;48.522;7.682;2023-02-28T10:17:08;1.40;1.00
11650;DHT22;5881;48.522;7.682;2023-02-28T10:20:01;1.50;1.00
11650;DHT22;5881;48.522;7.682;2023-02-28T10:25:24;1.40;1.00
11650;DHT22;5881;48.522;7.682;2023-02-28T10:27:54;1.40;1.00
11650;DHT22;5881;48.522;7.682;2023-02-28T10:30:19;1.50;1.00
11650;DHT22;5881;48.522;7.682;2023-02-28T10:32:50;1.60;1.00
11650;DHT22;5881;48.522;7.682;2023-02-28T10:35:26;1.60;1.00
11650;DHT22;5881;48.522;7.682;2023-02-28T10:37:57;1.50;1.00
11650;DHT22;5881;48.522;7.682;2023-02-28T10:43:05;1.60;1.00
11650;DHT22;5881;48.522;7.682;2023-02-28T10:45:32;1.80;1.00
11650;DHT22;5881;48.522;7.682;2023-02-28T10:48:06;1.80;1.00
11650;DHT22;5881;48.522;7.682;2023-02-28T10:50:50;1.70;1.00
11650;DHT22;5881;48.522;7.682;2023-02-28T10:53:24;1.60;1.00
11650;DHT22;5881;48.522;7.682;2023-02-28T11:03:50;1.60;1.00
11650;DHT22;5881;48.522;7.682;2023-02-28T11:06:34;1.70;1.00
11650;DHT22;5881;48.522;7.682;2023-02-28T11:09:13;1.70;1.00
11650;DHT22;5881;48.522;7.682;2023-02-28T11:11:46;1.60;1.00
11650;DHT22;5881;48.522;7.682;2023-02-28T11:14:36;1.60;1.00
11650;DHT22;5881;48.522;7.682;2023-02-28T11:17:25;1.70;1.00
11650;DHT22;5881;48.522;7.682;2023-02-28T11:19:55;1.90;1.00
11650;DHT22;5881;48.522;7.682;2023-02-28T11:22:27;1.90;1.00
11650;DHT22;5881;48.522;7.682;2023-02-28T11:25:00;2.00;1.00
11650;DHT22;5881;48.522;7.682;2023-02-28T11:29:55;1.90;1.00
11650;DHT22;5881;48.522;7.682;2023-02-28T11:32:25;2.00;1.00
11650;DHT22;5881;48.522;7.682;2023-02-28T11:37:35;2.00;1.00
11650;DHT22;5881;48.522;7.682;2023-02-28T11:40:02;2.20;1.00
11650;DHT22;5881;48.522;7.682;2023-02-28T11:48:21;2.20;1.00
11650;DHT22;5881;48.522;7.682;2023-02-28T11:56:15;2.60;1.00
11650;DHT22;5881;48.522;7.682;2023-02-28T12:02:22;2.50;1.00
11650;DHT22;5881;48.522;7.682;2023-02-28T12:05:05;2.60;1.00
11650;DHT22;5881;48.522;7.682;2023-02-28T12:07:49;2.80;1.00
11650;DHT22;5881;48.522;7.682;2023-02-28T12:10:23;2.90;1.00
11650;DHT22;5881;48.522;7.682;2023-02-28T12:18:27;2.90;1.00
11650;DHT22;5881;48.522;7.682;2023-02-28T12:21:09;2.90;1.00
11650;DHT22;5881;48.522;7.682;2023-02-28T12:29:15;2.90;1.00
11650;DHT22;5881;48.522;7.682;2023-02-28T12:31:59;2.90;1.00
11650;DHT22;5881;48.522;7.682;2023-02-28T12:34:33;3.10;1.00
11650;DHT22;5881;48.522;7.682;2023-02-28T12:37:03;3.20;1.00
11650;DHT22;5881;48.522;7.682;2023-02-28T12:39:36;3.30;1.00
11650;DHT22;5881;48.522;7.682;2023-02-28T12:42:10;3.40;1.00
11650;DHT22;5881;48.522;7.682;2023-02-28T12:44:46;3.60;1.00
11650;DHT22;5881;48.522;7.682;2023-02-28T12:47:16;3.30;1.00
11650;DHT22;5881;48.522;7.682;2023-02-28T12:53:06;3.50;1.00
11650;DHT22;5881;48.522;7.682;2023-02-28T12:58:49;3.30;1.00
11650;DHT22;5881;48.522;7.682;2023-02-28T13:05:07;3.70;1.00
11650;DHT22;5881;48.522;7.682;2023-02-28T13:10:00;3.70;1.00
11650;DHT22;5881;48.522;7.682;2023-02-28T13:12:27;4.00;1.00
11650;DHT22;5881;48.522;7.682;2023-02-28T13:15:25;3.90;1.00
11650;DHT22;5881;48.522;7.682;2023-02-28T13:17:56;3.70;1.00
11650;DHT22;5881;48.522;7.682;2023-02-28T13:22:54;3.90;1.00
11650;DHT22;5881;48.522;7.682;2023-02-28T13:27:55;3.80;1.00
11650;DHT22;5881;48.522;7.682;2023-02-28T13:34:04;4.30;1.00
11650;DHT22;5881;48.522;7.682;2023-02-28T13:36:30;4.30;1.00
11650;DHT22;5881;48.522;7.682;2023-02-28T13:39:01;4.30;1.00
11650;DHT22;5881;48.522;7.682;2023-02-28T13:52:02;4.20;1.00
11650;DHT22;5881;48.522;7.682;2023-02-28T13:54:51;4.30;1.00
11650;DHT22;5881;48.522;7.682;2023-02-28T14:06:26;4.70;1.00
11650;DHT22;5881;48.522;7.682;2023-02-28T14:11:40;4.60;1.00
11650;DHT22;5881;48.522;7.682;2023-02-28T14:14:08;4.50;1.00
11650;DHT22;5881;48.522;7.682;2023-02-28T14:16:45;4.50;1.00
11650;DHT22;5881;48.522;7.682;2023-02-28T14:19:29;4.30;1.00
11650;DHT22;5881;48.522;7.682;2023-02-28T14:25:05;4.10;1.00
11650;DHT22;5881;48.522;7.682;2023-02-28T14:27:47;4.10;1.00
11650;DHT22;5881;48.522;7.682;2023-02-28T14:38:31;4.60;1.00
11650;DHT22;5881;48.522;7.682;2023-02-28T14:41:00;4.60;1.00
11650;DHT22;5881;48.522;7.682;2023-02-28T14:43:27;4.50;1.00
11650;DHT22;5881;48.522;7.682;2023-02-28T14:46:04;4.60;1.00
11650;DHT22;5881;48.522;7.682;2023-02-28T14:48:31;4.80;1.00
11650;DHT22;5881;48.522;7.682;2023-02-28T14:51:00;4.80;1.00
11650;DHT22;5881;48.522;7.682;2023-02-28T14:53:29;4.70;1.00
11650;DHT22;5881;48.522;7.682;2023-02-28T14:55:55;4.70;1.00
11650;DHT22;5881;48.522;7.682;2023-02-28T14:58:30;4.70;1.00
11650;DHT22;5881;48.522;7.682;2023-02-28T15:00:59;4.70;1.00
11650;DHT22;5881;48.522;7.682;2023-02-28T15:03:34;4.70;1.00
11650;DHT22;5881;48.522;7.682;2023-02-28T15:06:27;4.70;1.00
11650;DHT22;5881;48.522;7.682;2023-02-28T15:09:16;4.70;1.00
11650;DHT22;5881;48.522;7.682;2023-02-28T15:11:45;4.60;1.00
11650;DHT22;5881;48.522;7.682;2023-02-28T15:14:19;4.60;1.00
11650;DHT22;5881;48.522;7.682;2023-02-28T15:16:48;4.60;1.00
11650;DHT22;5881;48.522;7.682;2023-02-28T15:21:49;4.60;1.00
11650;DHT22;5881;48.522;7.682;2023-02-28T15:24:44;4.60;1.00
11650;DHT22;5881;48.522;7.682;2023-02-28T15:27:22;4.50;1.00
11650;DHT22;5881;48.522;7.682;2023-02-28T15:29:53;4.60;1.00
11650;DHT22;5881;48.522;7.682;2023-02-28T15:32:39;4.60;1.00
11650;DHT22;5881;48.522;7.682;2023-02-28T15:38:01;4.60;1.00
11650;DHT22;5881;48.522;7.682;2023-02-28T15:40:35;4.60;1.00
11650;DHT22;5881;48.522;7.682;2023-02-28T15:45:36;4.60;1.00
11650;DHT22;5881;48.522;7.682;2023-02-28T15:48:05;4.60;1.00
11650;DHT22;5881;48.522;7.682;2023-02-28T15:50:31;4.50;1.00
11650;DHT22;5881;48.522;7.682;2023-02-28T15:52:57;4.60;1.00
11650;DHT22;5881;48.522;7.682;2023-02-28T15:55:25;4.60;1.00
11650;DHT22;5881;48.522;7.682;2023-02-28T15:57:53;4.60;1.00
11650;DHT22;5881;48.522;7.682;2023-02-28T16:00:23;4.50;1.00
11650;DHT22;5881;48.522;7.682;2023-02-28T16:02:49;4.60;1.00
11650;DHT22;5881;48.522;7.682;2023-02-28T16:05:18;4.60;1.00
11650;DHT22;5881;48.522;7.682;2023-02-28T16:07:46;4.60;1.00
11650;DHT22;5881;48.522;7.682;2023-02-28T16:10:13;4.70;1.00
11650;DHT22;5881;48.522;7.682;2023-02-28T16:12:42;4.50;1.00
11650;DHT22;5881;48.522;7.682;2023-02-28T16:15:28;4.60;1.00
11650;DHT22;5881;48.522;7.682;2023-02-28T16:17:55;4.50;1.00
11650;DHT22;5881;48.522;7.682;2023-02-28T16:20:27;4.40;1.00
11650;DHT22;5881;48.522;7.682;2023-02-28T16:22:54;4.30;1.00
11650;DHT22;5881;48.522;7.682;2023-02-28T16:25:23;4.30;1.00
11650;DHT22;5881;48.522;7.682;2023-02-28T16:27:52;4.30;1.00
11650;DHT22;5881;48.522;7.682;2023-02-28T16:30:22;4.30;1.00
11650;DHT22;5881;48.522;7.682;2023-02-28T16:32:49;4.20;1.00
11650;DHT22;5881;48.522;7.682;2023-02-28T16:35:15;4.10;1.00
11650;DHT22;5881;48.522;7.682;2023-02-28T16:37:41;4.10;1.00
11650;DHT22;5881;48.522;7.682;2023-02-28T16:40:13;4.00;1.00
11650;DHT22;5881;48.522;7.682;2023-02-28T16:42:40;4.00;1.00
11650;DHT22;5881;48.522;7.682;2023-02-28T16:45:06;4.00;1.00
11650;DHT22;5881;48.522;7.682;2023-02-28T16:47:36;3.90;1.00
11650;DHT22;5881;48.522;7.682;2023-02-28T16:50:01;3.90;1.00
11650;DHT22;5881;48.522;7.682;2023-02-28T16:52:27;3.90;1.00
11650;DHT22;5881;48.522;7.682;2023-02-28T16:54:54;3.80;1.00
11650;DHT22;5881;48.522;7.682;2023-02-28T16:57:23;3.70;1.00
11650;DHT22;5881;48.522;7.682;2023-02-28T16:59:49;3.80;1.00
11650;DHT22;5881;48.522;7.682;2023-02-28T17:02:18;3.60;1.00
11650;DHT22;5881;48.522;7.682;2023-02-28T17:04:45;3.50;1.00
11650;DHT22;5881;48.522;7.682;2023-02-28T17:07:13;3.40;1.00
11650;DHT22;5881;48.522;7.682;2023-02-28T17:09:39;3.40;1.00
11650;DHT22;5881;48.522;7.682;2023-02-28T17:12:06;3.50;1.00
11650;DHT22;5881;48.522;7.682;2023-02-28T17:14:31;3.30;1.00
11650;DHT22;5881;48.522;7.682;2023-02-28T17:16:57;3.30;1.00
11650;DHT22;5881;48.522;7.682;2023-02-28T17:19:23;3.30;1.00
11650;DHT22;5881;48.522;7.682;2023-02-28T17:21:48;3.20;1.00
11650;DHT22;5881;48.522;7.682;2023-02-28T17:24:14;3.20;1.00
11650;DHT22;5881;48.522;7.682;2023-02-28T17:26:41;3.10;1.00
11650;DHT22;5881;48.522;7.682;2023-02-28T17:29:25;3.10;1.00
11650;DHT22;5881;48.522;7.682;2023-02-28T17:31:51;3.10;1.00
11650;DHT22;5881;48.522;7.682;2023-02-28T17:34:16;3.10;1.00
11650;DHT22;5881;48.522;7.682;2023-02-28T17:36:50;3.00;1.00
11650;DHT22;5881;48.522;7.682;2023-02-28T17:39:18;3.10;1.00
11650;DHT22;5881;48.522;7.682;2023-02-28T17:41:54;2.90;1.00
11650;DHT22;5881;48.522;7.682;2023-02-28T17:44:21;2.90;1.00
11650;DHT22;5881;48.522;7.682;2023-02-28T17:46:47;3.00;1.00
11650;DHT22;5881;48.522;7.682;2023-02-28T17:49:13;2.90;1.00
11650;DHT22;5881;48.522;7.682;2023-02-28T17:51:39;2.90;1.00
11650;DHT22;5881;48.522;7.682;2023-02-28T17:54:04;2.80;1.00
11650;DHT22;5881;48.522;7.682;2023-02-28T17:56:30;2.90;1.00
11650;DHT22;5881;48.522;7.682;2023-02-28T17:58:56;2.90;1.00
11650;DHT22;5881;48.522;7.682;2023-02-28T18:01:23;2.80;1.00
11650;DHT22;5881;48.522;7.682;2023-02-28T18:03:52;2.70;1.00
11650;DHT22;5881;48.522;7.682;2023-02-28T18:06:28;2.90;1.00
11650;DHT22;5881;48.522;7.682;2023-02-28T18:08:55;2.70;1.00
11650;DHT22;5881;48.522;7.682;2023-02-28T18:11:22;2.90;1.00
11650;DHT22;5881;48.522;7.682;2023-02-28T18:13:50;2.80;1.00
11650;DHT22;5881;48.522;7.682;2023-02-28T18:16:18;2.60;1.00
11650;DHT22;5881;48.522;7.682;2023-02-28T18:18:44;2.80;1.00
11650;DHT22;5881;48.522;7.682;2023-02-28T18:21:12;2.70;1.00
11650;DHT22;5881;48.522;7.682;2023-02-28T18:23:39;2.60;1.00
11650;DHT22;5881;48.522;7.682;2023-02-28T18:26:13;2.60;1.00
11650;DHT22;5881;48.522;7.682;2023-02-28T18:28:38;2.60;1.00
11650;DHT22;5881;48.522;7.682;2023-02-28T18:31:08;2.70;1.00
11650;DHT22;5881;48.522;7.682;2023-02-28T18:33:34;2.50;1.00
11650;DHT22;5881;48.522;7.682;2023-02-28T18:36:00;2.60;1.00
11650;DHT22;5881;48.522;7.682;2023-02-28T18:38:26;2.60;1.00
11650;DHT22;5881;48.522;7.682;2023-02-28T18:40:58;2.50;1.00
11650;DHT22;5881;48.522;7.682;2023-02-28T18:43:28;2.50;1.00
11650;DHT22;5881;48.522;7.682;2023-02-28T18:45:55;2.50;1.00
11650;DHT22;5881;48.522;7.682;2023-02-28T18:48:20;2.60;1.00
11650;DHT22;5881;48.522;7.682;2023-02-28T18:50:48;2.50;1.00
11650;DHT22;5881;48.522;7.682;2023-02-28T18:53:14;2.40;1.00
11650;DHT22;5881;48.522;7.682;2023-02-28T18:55:40;2.50;1.00